• Join FlightAware (Why Join?)
  • Login
  • US Flag 
10:34AM EDT


 

Airport Tracker/Info


-or-


 

Live Flight TrackerFlight Track Log ✈ RPA4901 ✈ 23-Apr-2013 ✈ KDEN - KABQ

Flight Track Log - Related Links

Times and Time Zones

All times are in EDT time to prevent confusion due to time zone crossing. See the RPA4901 flight status page for this flight to view local times or setup timezone preferences in your user account.

Time Position Orientation Groundspeed Altitude Reporting Facility
EDT Latitude Longitude Course Direction KTS MPH feet Rate Location/Type
09:19PM 39.8000 -104.6667 207° Southwest 186 214 7,100  Level Denver TRACON
09:20PM 39.7333 -104.6833 191° South 234 269 8,800 1,680 Climbing Denver TRACON
09:21PM 39.7103 -104.7014 211° Southwest 239 275 9,600 1,500 Climbing Denver Center
09:22PM 39.6278 -104.7289 194° South 280 322 11,100 1,560 Climbing Denver Center
09:23PM 39.5539 -104.7686 203° Southwest 286 329 12,900 1,680 Climbing Denver Center
09:24PM 39.4864 -104.8214 211° Southwest 283 326 14,600 1,500 Climbing Denver Center
09:25PM 39.3716 -104.9134 207° Southwest  Level FlightAware Approximate
09:25PM 39.4075 -104.8803 210° Southwest 303 349 16,000  Level Denver Center
09:26PM 39.3328 -104.9281 206° Southwest 302 348 17,600 1,380 Climbing Denver Center
09:27PM 39.2594 -104.9800 209° Southwest 301 346 18,900 1,320 Climbing Denver Center
09:28PM 39.1814 -105.0356 209° Southwest 299 344 20,400 1,440 Climbing Denver Center
09:29PM 39.1081 -105.0817 206° Southwest 288 331 21,900 1,260 Climbing Denver Center
09:30PM 39.0394 -105.1211 204° Southwest 286 329 23,100 1,020 Climbing Denver Center
09:31PM 38.9603 -105.1681 205° Southwest 288 331 24,000 360 Climbing Denver Center
09:32PM 38.8817 -105.2128 204° Southwest 302 348 24,000  Level Denver Center
09:33PM 38.7753 -105.2767 205° Southwest 326 375 24,000  Level Denver Center
09:34PM 38.6778 -105.3328 204° Southwest 346 398 24,000  Level Denver Center
09:35PM 38.5872 -105.3792 202° Southwest 354 407 24,000  Level Denver Center
09:36PM 38.4892 -105.4172 197° South 356 410 24,000  Level Denver Center
09:37PM 38.3911 -105.4561 197° South 355 409 24,000  Level Denver Center
09:39PM 38.2889 -105.4986 198° South 350 403 24,000  Level Denver Center
09:40PM 38.1839 -105.5400 197° South 350 403 24,000  Level Denver Center
09:41PM 38.0956 -105.5758 198° South 349 402 24,000  Level Denver Center
09:42PM 37.9869 -105.6203 198° South 361 415 24,000  Level Denver Center
09:43PM 37.8983 -105.6564 198° South 352 405 24,000  Level Denver Center
09:44PM 37.7953 -105.6975 197° South 348 400 24,000  Level Denver Center
09:45PM 37.7061 -105.7328 197° South 350 403 24,000  Level Denver Center
09:46PM 37.6181 -105.7692 198° South 349 402 24,000  Level Denver Center
09:47PM 37.5131 -105.8100 197° South 351 404 24,000  Level Denver Center
09:48PM 37.4236 -105.8458 198° South 351 404 24,000  Level Denver Center
09:49PM 37.3225 -105.8875 198° South 348 400 24,000  Level Denver Center
09:50PM 37.2322 -105.9222 197° South 349 402 24,000  Level Denver Center
09:51PM 37.1267 -105.9617 197° South 351 404 24,000  Level Denver Center
09:52PM 37.0386 -105.9986 199° South 351 404 24,000  Level Denver Center
09:53PM 36.9478 -106.0344 197° South 355 409 24,000  Level Denver Center
09:54PM 36.8394 -106.0769 197° South 362 417 24,000  Level Denver Center
09:55PM 36.7489 -106.1125 197° South 358 412 24,000  Level Denver Center
09:56PM 36.6611 -106.1469 197° South 351 404 24,000  Level Denver Center
09:57PM 36.5683 -106.1817 197° South 349 402 24,000  Level Denver Center
09:58PM 36.4572 -106.2256 198° South 349 402 24,000  Level Denver Center
09:59PM 36.3650 -106.2606 197° South 348 400 24,000  Level Denver Center
10:00PM 36.2747 -106.2969 198° South 343 395 24,000  Level Denver Center
10:01PM 36.1828 -106.3325 197° South 345 397 24,000  Level Denver Center
10:02PM 36.0722 -106.3772 198° South 347 399 24,000 -720 Level Albuquerque Center
10:03PM 35.9792 -106.4194 200° South 353 406 22,500 -1,560 Descending Albuquerque Center
10:04PM 35.8781 -106.4614 199° South 356 410 20,900 -1,500 Descending Albuquerque Center
10:05PM 35.7906 -106.4997 200° South 351 404 19,500 -1,500 Descending Albuquerque Center
10:06PM 35.7139 -106.5325 199° South 357 411 18,200 -1,620 Descending Albuquerque Center
10:06PM 35.6992 -106.5389 199° South 356 410 17,900 -1,320 Descending Albuquerque Center
10:07PM 35.6564 -106.5581 200° South 358 412 17,400 -1,500 Descending Albuquerque Center
10:07PM 35.6075 -106.5786 199° South 353 406 16,400 -1,800 Descending Albuquerque Center
10:08PM 35.5667 -106.5944 198° South 341 392 15,600 -1,800 Descending Albuquerque Center
10:08PM 35.5211 -106.6161 201° Southwest 336 387 14,600 -1,680 Descending Albuquerque Center
10:09PM 35.4836 -106.6317 199° South 311 358 13,900 -1,680 Descending Albuquerque Center
10:09PM 35.4400 -106.6497 199° South 316 364 12,900 -1,800 Descending Albuquerque Center
10:10PM 35.4042 -106.6653 199° South 301 346 12,100 -1,680 Descending Albuquerque Center
10:10PM 35.3639 -106.6844 201° Southwest 297 342 11,200 -1,500 Descending Albuquerque Center
10:11PM 35.3292 -106.7003 200° South 288 331 10,600 -1,500 Descending Albuquerque Center
10:11PM 35.2756 -106.7239 200° South 287 330 9,700 -1,320 Descending Albuquerque Center
10:12PM 35.2522 -106.7358 203° Southwest 269 310 9,300 -720 Descending Albuquerque Center
10:12PM 35.2058 -106.7589 202° Southwest 277 319 9,000 -300 Descending Albuquerque Center
10:13PM 35.1836 -106.7717 205° Southwest 269 310 9,000  Level Albuquerque Center
10:14PM 35.1153 -106.8072 203° Southwest 273 314 9,000 -300 Level Albuquerque Center
10:15PM 35.0631 -106.8314 201° Southwest 273 314 8,500 -720 Descending Albuquerque Center
10:15PM 35.0433 -106.8361 191° South 268 308 8,300 -600 Descending Albuquerque Center
10:16PM 34.9972 -106.8053 151° Southeast 261 300 7,900 -600 Descending Albuquerque Center
10:16PM 34.9853 -106.7964 149° Southeast 234 269 7,700 -540 Descending Albuquerque Center
10:17PM 34.9467 -106.7589 141° Southeast 241 277 7,400 -300 Descending Albuquerque Center
10:17PM 34.9444 -106.7447 101° East 204 235 7,400 -420 Level Albuquerque Center
10:18PM 34.9572 -106.7053 68° East 200 230 7,000 -660 Descending Albuquerque Center
10:19PM 34.9847 -106.6750 42° Northeast 157 181 6,300 -720 Descending Albuquerque Center
10:20PM 35.0108 -106.6436 45° Northeast 140 161 5,600 -540 Descending Albuquerque Center
10:21PM 35.0403 -106.6083 44° Northeast 136 157 5,300 -300 Descending Albuquerque Center